Rhodes, Greece

10:37 AM EET on November 18, 2018 (GMT +0200)
stadium of Diagoras-RHODES | | Change Station

Elev 49 ft 36.44 °N, 28.23 °E | Updated 5 seconds ago

Partly Cloudy
Partly Cloudy
67.3 °F
Feels Like 67.3 °F
N
10.9
Wind Variable Wind from ESE
Gusts 10.9 mph

Today
High -- | Low -- °F
--% Chance of Precip.
Yesterday
High -- | Low -- °F
Precip. -- in
Pressure 30.09 in
Visibility 6.2 miles
Clouds Scattered Clouds 3000 ft
Mostly Cloudy 10000 ft
Dew Point 62 °F
Humidity 84%
Rainfall 0.46 in
Snow Depth Not available.
6:47 AM 4:56 PM
Waxing Gibbous, 75% visible
METAR LTBS 180820Z 08005KT 040V120 9999 SCT030 BKN100 18/14 Q1019 R012///95 NOSIG RMK RWY19 03003KT 360V070
Pressure 30.09 in
Visibility 6.2 miles
Clouds Scattered Clouds 3000 ft
Mostly Cloudy 10000 ft
Dew Point 62 °F
Humidity 84%
Rainfall 0.46 in
Snow Depth Not available.
6:47 AM 4:56 PM
Waxing Gibbous, 75% visible
METAR LTBS 180820Z 08005KT 040V120 9999 SCT030 BKN100 18/14 Q1019 R012///95 NOSIG RMK RWY19 03003KT 360V070

Get Severe Weather Alerts

Thanks for signing up!

Be on the lookout for a verification email in your inbox.

You'll start receiving the daily forecast at 6 AM.

×

10-Day Weather Forecast

×

Almanac

Astronomy

Nov. 18, 2018 Rise Set
Actual Time
Civil Twilight
Nautical Twilight
Astronomical Twilight
Moon
Length of Visible Light
Length of Day
Tomorrow will be .
, % of the Moon is Illuminated

Today's Extremes

Country Highs Country Lows

Community

WunderPhotos

Category 6

Welcome to Category 6. This is the collective home for Weather Underground's featured writeups by Dr. Jeff Masters (right), Bob Henson (left), Chris Burt, and other regular contributors.

Nearby

Air Quality

  Air Quality AQ Index Pollutant
Not available.

Snow Depth

Station Depth Elevation

Earthquake Activity

City Distance Mag. Time & Date
Minimum magnitude displayed is 2.5.

Coastal Water Temperatures

Place Temperature

Stations

Nearby Weather Stations

Station Location Temp. Windchill Dew Point Humidity Wind Precip. Elev Updated Type